createdAt,value
2023-03-06T00:00:29.743Z,5.10
2023-03-06T00:01:03.675Z,4.70
2023-03-06T00:01:35.209Z,4.53
2023-03-06T00:02:06.938Z,4.80
2023-03-06T00:02:38.499Z,4.63
2023-03-06T00:03:10.059Z,5.13
2023-03-06T00:03:41.832Z,5.78
2023-03-06T00:04:13.447Z,4.43
2023-03-06T00:04:44.983Z,4.00
2023-03-06T00:05:17.348Z,4.93
2023-03-06T00:05:48.955Z,4.63
2023-03-06T00:06:22.119Z,3.97
2023-03-06T00:06:54.174Z,4.57
2023-03-06T00:07:25.718Z,4.47
2023-03-06T00:07:57.388Z,4.90
2023-03-06T00:08:29.559Z,4.43
2023-03-06T00:09:01.139Z,4.45
2023-03-06T00:09:32.784Z,4.43
2023-03-06T00:10:05.054Z,4.10
2023-03-06T00:10:37.278Z,4.03
2023-03-06T00:11:08.906Z,4.18
2023-03-06T00:11:40.481Z,4.53
2023-03-06T00:12:12.054Z,4.35
2023-03-06T00:12:43.633Z,4.72
2023-03-06T00:13:18.867Z,4.63
2023-03-06T00:13:50.498Z,4.47
2023-03-06T00:14:22.152Z,4.25
2023-03-06T00:14:53.915Z,4.45
2023-03-06T00:15:26.541Z,4.63
2023-03-06T00:15:59.679Z,4.88
2023-03-06T00:16:31.347Z,4.43
2023-03-06T00:17:02.971Z,4.55
2023-03-06T00:17:34.518Z,4.20
2023-03-06T00:18:06.703Z,4.75
2023-03-06T00:18:38.258Z,3.83
2023-03-06T00:19:09.857Z,4.50
2023-03-06T00:19:41.682Z,4.13
2023-03-06T00:20:14.398Z,4.63
2023-03-06T00:20:46.040Z,4.40
2023-03-06T00:21:17.650Z,3.85
2023-03-06T00:21:49.872Z,4.30
2023-03-06T00:22:21.418Z,3.97
2023-03-06T00:22:53.002Z,4.43
2023-03-06T00:23:24.719Z,5.38
2023-03-06T00:23:56.226Z,3.85
2023-03-06T00:24:27.783Z,4.38
2023-03-06T00:24:59.452Z,4.00
2023-03-06T00:25:31.046Z,4.05
2023-03-06T00:26:02.576Z,4.80
2023-03-06T00:26:35.640Z,3.95
2023-03-06T00:27:07.191Z,3.97
2023-03-06T00:27:38.777Z,4.05
2023-03-06T00:28:12.277Z,4.05
2023-03-06T00:28:44.599Z,4.15
2023-03-06T00:29:16.229Z,3.53
2023-03-06T00:29:50.463Z,3.38
2023-03-06T00:30:23.848Z,3.70
2023-03-06T00:30:55.380Z,3.60
2023-03-06T00:31:26.929Z,3.65
2023-03-06T00:31:58.543Z,3.80
2023-03-06T00:32:31.132Z,3.50
2023-03-06T00:33:02.718Z,4.00
2023-03-06T00:33:35.225Z,3.40
2023-03-06T00:34:06.749Z,3.05
2023-03-06T00:34:38.277Z,3.45
2023-03-06T00:35:10.690Z,2.92
2023-03-06T00:35:42.574Z,3.42
2023-03-06T00:36:16.418Z,3.40
2023-03-06T00:36:47.955Z,3.25
2023-03-06T00:37:20.119Z,3.80
2023-03-06T00:37:51.776Z,4.30
2023-03-06T00:38:23.301Z,3.22
2023-03-06T00:38:54.850Z,3.58
2023-03-06T00:39:26.422Z,3.65
2023-03-06T00:39:58.701Z,3.17
2023-03-06T00:40:30.258Z,3.55
2023-03-06T00:41:11.980Z,3.28
2023-03-06T00:41:45.990Z,3.92
2023-03-06T00:42:19.217Z,3.70
2023-03-06T00:42:50.784Z,3.38
2023-03-06T00:43:24.324Z,3.72
2023-03-06T00:43:55.894Z,3.65
2023-03-06T00:44:27.406Z,3.58
2023-03-06T00:44:59.675Z,4.05
2023-03-06T00:45:31.346Z,4.88
2023-03-06T00:46:03.088Z,2.95
2023-03-06T00:46:34.810Z,3.83
2023-03-06T00:47:07.714Z,3.92
2023-03-06T00:47:40.159Z,3.42
2023-03-06T00:48:11.689Z,2.90
2023-03-06T00:48:44.094Z,3.13
2023-03-06T00:49:15.620Z,3.92
2023-03-06T00:49:47.193Z,3.30
2023-03-06T00:50:18.820Z,4.07
2023-03-06T00:50:50.320Z,3.83
2023-03-06T00:51:22.789Z,2.80
2023-03-06T00:51:54.368Z,3.60
2023-03-06T00:52:26.020Z,2.85
2023-03-06T00:52:57.586Z,3.60
2023-03-06T00:53:29.726Z,3.00
2023-03-06T00:54:01.275Z,3.45
2023-03-06T00:54:32.798Z,3.10
2023-03-06T00:55:05.422Z,3.15
2023-03-06T00:55:37.203Z,3.42
2023-03-06T00:56:09.203Z,3.63
2023-03-06T00:56:40.769Z,2.80
2023-03-06T00:57:12.751Z,3.30
2023-03-06T00:57:44.331Z,3.30
2023-03-06T00:58:15.952Z,3.20
2023-03-06T00:58:47.489Z,3.00
2023-03-06T00:59:19.128Z,3.47
2023-03-06T00:59:50.910Z,3.30
2023-03-06T01:00:22.604Z,2.83
2023-03-06T01:00:54.610Z,3.00
2023-03-06T01:01:27.319Z,3.03
2023-03-06T01:01:59.163Z,3.60
2023-03-06T01:02:31.675Z,3.42
2023-03-06T01:03:03.309Z,3.10
2023-03-06T01:03:35.148Z,2.42
2023-03-06T01:04:06.659Z,3.17
2023-03-06T01:04:38.235Z,3.25
2023-03-06T01:05:10.385Z,3.17
2023-03-06T01:05:42.430Z,3.05
2023-03-06T01:06:13.997Z,2.63
2023-03-06T01:06:45.883Z,3.25
2023-03-06T01:07:17.536Z,2.80
2023-03-06T01:07:49.068Z,4.10
2023-03-06T01:08:20.598Z,3.00
2023-03-06T01:08:52.195Z,3.08
2023-03-06T01:09:24.314Z,3.05
2023-03-06T01:09:58.555Z,3.08
2023-03-06T01:10:30.055Z,3.08
2023-03-06T01:11:01.606Z,2.80
2023-03-06T01:11:33.147Z,3.10
2023-03-06T01:12:04.835Z,2.80
2023-03-06T01:12:36.355Z,3.05
2023-03-06T01:13:07.960Z,3.33
2023-03-06T01:13:39.708Z,2.50
2023-03-06T01:14:11.242Z,2.50
2023-03-06T01:14:42.785Z,2.97
2023-03-06T01:15:14.823Z,2.75
2023-03-06T01:15:46.494Z,3.00
2023-03-06T01:16:19.374Z,2.65
2023-03-06T01:16:53.623Z,3.05
2023-03-06T01:17:25.223Z,2.78
2023-03-06T01:17:56.767Z,3.50
2023-03-06T01:18:28.386Z,3.05
2023-03-06T01:19:00.140Z,3.55
2023-03-06T01:19:31.694Z,3.35
2023-03-06T01:20:04.449Z,2.80
2023-03-06T01:20:35.993Z,2.95
2023-03-06T01:21:07.796Z,2.85
2023-03-06T01:21:40.923Z,3.03
2023-03-06T01:22:12.511Z,3.40
2023-03-06T01:22:44.273Z,3.03
2023-03-06T01:23:15.786Z,3.05
2023-03-06T01:23:47.569Z,3.28
2023-03-06T01:24:19.104Z,2.88
2023-03-06T01:24:50.680Z,3.03
2023-03-06T01:25:26.297Z,3.58
2023-03-06T01:25:57.956Z,3.05
2023-03-06T01:26:29.587Z,3.08
2023-03-06T01:27:01.119Z,2.90
2023-03-06T01:27:32.708Z,3.25
2023-03-06T01:28:04.337Z,3.00
2023-03-06T01:28:39.256Z,2.88
2023-03-06T01:29:10.867Z,3.75
2023-03-06T01:29:42.858Z,3.00
2023-03-06T01:30:15.301Z,4.65
2023-03-06T01:30:46.859Z,3.33
2023-03-06T01:31:18.600Z,3.47
2023-03-06T01:31:50.309Z,3.60
2023-03-06T01:32:22.129Z,3.58
2023-03-06T01:32:54.091Z,3.13
2023-03-06T01:33:25.678Z,3.13
2023-03-06T01:33:57.215Z,2.75
2023-03-06T01:34:28.788Z,2.85
2023-03-06T01:35:00.342Z,2.90
2023-03-06T01:35:31.923Z,3.15
2023-03-06T01:36:08.622Z,3.22
2023-03-06T01:36:40.211Z,2.97
2023-03-06T01:37:11.816Z,3.15
2023-03-06T01:37:43.383Z,2.75
2023-03-06T01:38:15.793Z,3.30
2023-03-06T01:38:47.341Z,2.83
2023-03-06T01:39:19.569Z,3.45
2023-03-06T01:39:51.257Z,3.17
2023-03-06T01:40:22.768Z,3.50
2023-03-06T01:40:54.325Z,3.55
2023-03-06T01:41:25.891Z,3.15
2023-03-06T01:41:57.509Z,3.10
2023-03-06T01:42:29.983Z,3.88
2023-03-06T01:43:35.426Z,3.70
2023-03-06T01:44:07.048Z,3.25
2023-03-06T01:44:58.675Z,3.17
2023-03-06T01:45:30.292Z,3.15
2023-03-06T01:46:53.963Z,4.60
2023-03-06T01:47:25.938Z,3.25
2023-03-06T01:47:57.462Z,2.83
2023-03-06T01:48:29.149Z,3.10
2023-03-06T01:49:03.448Z,3.38
2023-03-06T01:49:37.044Z,3.10
2023-03-06T01:50:10.293Z,3.00
2023-03-06T01:50:41.890Z,3.15
2023-03-06T01:51:14.855Z,3.40
2023-03-06T01:51:52.982Z,3.78
2023-03-06T01:52:30.294Z,4.30
2023-03-06T01:53:01.981Z,4.00
2023-03-06T01:53:33.636Z,3.83
2023-03-06T01:54:13.540Z,4.45
2023-03-06T01:54:48.139Z,3.60
2023-03-06T01:55:22.036Z,3.63
2023-03-06T01:55:53.818Z,3.75
2023-03-06T01:56:26.172Z,3.97
2023-03-06T01:57:03.200Z,3.85
2023-03-06T01:57:42.186Z,4.30
2023-03-06T01:58:16.661Z,4.60
2023-03-06T01:58:49.618Z,4.18
2023-03-06T01:59:22.337Z,3.95
2023-03-06T02:00:00.392Z,3.88
2023-03-06T02:00:32.054Z,4.00
2023-03-06T02:01:03.660Z,4.13
2023-03-06T02:01:35.663Z,4.53
2023-03-06T02:02:09.568Z,4.85
2023-03-06T02:02:51.619Z,4.32
2023-03-06T02:03:25.778Z,4.15
2023-03-06T02:03:57.402Z,4.05
2023-03-06T02:04:29.790Z,4.30
2023-03-06T02:05:03.711Z,4.78
2023-03-06T02:05:35.926Z,4.97
2023-03-06T02:06:07.892Z,4.45
2023-03-06T02:06:43.098Z,4.57
2023-03-06T02:07:15.909Z,4.15
2023-03-06T02:07:48.165Z,5.00
2023-03-06T02:08:20.707Z,4.72
2023-03-06T02:08:53.075Z,4.05
2023-03-06T02:09:26.062Z,4.38
2023-03-06T02:09:59.015Z,4.15
2023-03-06T02:10:30.993Z,4.22
2023-03-06T02:11:08.602Z,5.13
2023-03-06T02:11:44.029Z,5.15
2023-03-06T02:12:19.061Z,5.22
2023-03-06T02:12:51.380Z,4.63
2023-03-06T02:13:23.025Z,5.10
2023-03-06T02:13:57.078Z,5.07
2023-03-06T02:14:29.477Z,4.82
2023-03-06T02:15:02.433Z,4.93
2023-03-06T02:15:34.196Z,4.55
2023-03-06T02:16:06.543Z,5.10
2023-03-06T02:16:38.159Z,5.57
2023-03-06T02:17:11.060Z,5.00
2023-03-06T02:17:45.588Z,4.72
2023-03-06T02:18:17.207Z,5.32
2023-03-06T02:18:48.899Z,5.30
2023-03-06T02:19:54.208Z,5.53
2023-03-06T02:20:43.949Z,5.05
2023-03-06T02:21:20.804Z,4.25
2023-03-06T02:21:52.473Z,4.95
2023-03-06T02:22:26.207Z,5.57
2023-03-06T02:23:06.741Z,4.57
2023-03-06T02:24:00.080Z,6.10
2023-03-06T02:25:20.896Z,5.22
2023-03-06T02:25:53.034Z,3.95
2023-03-06T02:26:25.296Z,4.65
2023-03-06T02:26:58.043Z,4.38
2023-03-06T02:27:30.294Z,5.22
2023-03-06T02:28:02.324Z,4.55
2023-03-06T02:28:34.317Z,6.00
2023-03-06T02:29:07.776Z,5.97
2023-03-06T02:29:39.297Z,5.03
2023-03-06T02:30:13.910Z,5.57
2023-03-06T02:30:47.662Z,4.95
2023-03-06T02:31:23.439Z,5.15
2023-03-06T02:31:55.674Z,5.97
2023-03-06T02:32:27.695Z,5.00
2023-03-06T02:32:59.997Z,4.68
2023-03-06T02:33:31.642Z,6.15
2023-03-06T02:34:07.928Z,5.78
2023-03-06T02:34:39.446Z,5.40
2023-03-06T02:35:26.101Z,5.22
2023-03-06T02:36:01.476Z,5.53
2023-03-06T02:36:40.253Z,5.53
2023-03-06T02:37:11.845Z,5.72
2023-03-06T02:37:44.477Z,4.68
2023-03-06T02:38:17.999Z,5.13
2023-03-06T02:38:51.083Z,5.30
2023-03-06T02:39:26.952Z,5.35
2023-03-06T02:40:08.596Z,5.90
2023-03-06T02:40:42.635Z,6.15
2023-03-06T02:41:14.548Z,6.22
2023-03-06T02:41:46.340Z,5.70
2023-03-06T02:42:25.810Z,5.22
2023-03-06T02:42:59.001Z,5.60
2023-03-06T02:43:33.975Z,5.25
2023-03-06T02:44:05.650Z,5.57
2023-03-06T02:44:37.501Z,6.28
2023-03-06T02:45:11.207Z,5.57
2023-03-06T02:45:45.937Z,5.88
2023-03-06T02:46:17.753Z,6.57
2023-03-06T02:46:49.287Z,6.38
2023-03-06T02:47:20.949Z,6.32
2023-03-06T02:47:53.460Z,6.35
2023-03-06T02:48:25.208Z,6.22
2023-03-06T02:48:56.946Z,5.15
2023-03-06T02:49:28.447Z,5.47
2023-03-06T02:50:00.020Z,5.70
2023-03-06T02:50:32.766Z,6.43
2023-03-06T02:51:06.118Z,6.40
2023-03-06T02:51:37.706Z,6.10
2023-03-06T02:52:10.519Z,5.75
2023-03-06T02:52:44.026Z,5.78
2023-03-06T02:53:17.909Z,6.03
2023-03-06T02:53:49.773Z,6.18
2023-03-06T02:54:21.311Z,6.22
2023-03-06T02:54:53.053Z,6.18
2023-03-06T02:55:24.689Z,7.05
2023-03-06T02:55:58.454Z,6.90
2023-03-06T02:56:30.063Z,5.95
2023-03-06T02:57:02.247Z,5.80
2023-03-06T02:57:35.475Z,6.28
2023-03-06T02:58:07.216Z,5.50
2023-03-06T02:58:39.138Z,5.95
2023-03-06T02:59:11.156Z,6.18
2023-03-06T02:59:42.913Z,5.97
2023-03-06T03:00:15.704Z,6.35
2023-03-06T03:00:48.743Z,5.75
2023-03-06T03:01:20.593Z,5.07
2023-03-06T03:01:52.419Z,5.65
2023-03-06T03:02:24.001Z,5.78
2023-03-06T03:02:56.265Z,6.05
2023-03-06T03:03:27.998Z,5.53
2023-03-06T03:04:00.255Z,6.20
2023-03-06T03:04:32.702Z,5.43
2023-03-06T03:05:05.292Z,6.00
2023-03-06T03:05:37.129Z,6.18
2023-03-06T03:06:16.378Z,5.82
2023-03-06T03:06:48.785Z,6.68
2023-03-06T03:07:20.454Z,5.97
2023-03-06T03:07:52.079Z,6.72
2023-03-06T03:08:24.393Z,5.45
2023-03-06T03:09:00.198Z,5.72
2023-03-06T03:09:36.915Z,6.05
2023-03-06T03:10:09.293Z,7.28
2023-03-06T03:10:40.854Z,7.00
2023-03-06T03:11:12.559Z,6.97
2023-03-06T03:11:47.743Z,6.40
2023-03-06T03:12:19.577Z,6.85
2023-03-06T03:12:51.408Z,6.95
2023-03-06T03:13:23.731Z,6.68
2023-03-06T03:13:55.387Z,6.90
2023-03-06T03:14:29.062Z,6.43
2023-03-06T03:15:00.988Z,6.68
2023-03-06T03:15:33.493Z,7.32
2023-03-06T03:16:08.760Z,6.47
2023-03-06T03:16:40.473Z,7.13
2023-03-06T03:17:12.027Z,6.65
2023-03-06T03:17:43.924Z,6.80
2023-03-06T03:18:15.819Z,6.70
2023-03-06T03:18:51.222Z,6.43
2023-03-06T03:19:25.640Z,6.85
2023-03-06T03:19:57.286Z,8.52
2023-03-06T03:20:28.889Z,7.80
2023-03-06T03:21:00.990Z,7.30
2023-03-06T03:21:32.865Z,7.45
2023-03-06T03:22:04.433Z,8.10
2023-03-06T03:22:36.006Z,7.85
2023-03-06T03:23:07.514Z,7.75
2023-03-06T03:23:39.219Z,8.07
2023-03-06T03:24:10.801Z,7.43
2023-03-06T03:24:42.611Z,8.15
2023-03-06T03:25:14.920Z,8.02
2023-03-06T03:25:46.937Z,7.97
2023-03-06T03:26:20.835Z,7.65
2023-03-06T03:26:59.236Z,8.07
2023-03-06T03:27:31.056Z,8.52
2023-03-06T03:28:03.114Z,8.00
2023-03-06T03:28:35.274Z,8.18
2023-03-06T03:29:06.978Z,8.30
2023-03-06T03:29:38.538Z,8.15
2023-03-06T03:30:11.094Z,8.52
2023-03-06T03:30:42.716Z,8.85
2023-03-06T03:31:14.746Z,8.50
2023-03-06T03:31:46.294Z,8.30
2023-03-06T03:32:17.967Z,7.80
2023-03-06T03:32:50.300Z,7.95
2023-03-06T03:33:21.992Z,8.73
2023-03-06T03:33:53.534Z,8.57
2023-03-06T03:34:26.853Z,8.30
2023-03-06T03:34:58.867Z,8.48
2023-03-06T03:35:31.028Z,7.75
2023-03-06T03:36:04.164Z,7.93
2023-03-06T03:36:35.966Z,8.98
2023-03-06T03:37:08.026Z,8.68
2023-03-06T03:37:39.611Z,8.52
2023-03-06T03:38:11.148Z,8.20
2023-03-06T03:38:42.710Z,8.35
2023-03-06T03:39:15.500Z,8.55
2023-03-06T03:39:47.611Z,9.35
2023-03-06T03:40:19.137Z,8.57
2023-03-06T03:40:52.807Z,9.10
2023-03-06T03:41:24.338Z,8.90
2023-03-06T03:41:56.608Z,8.57
2023-03-06T03:42:28.639Z,7.40
2023-03-06T03:43:00.241Z,7.80
2023-03-06T03:43:32.292Z,8.27
2023-03-06T03:44:04.715Z,7.28
2023-03-06T03:44:36.787Z,8.32
2023-03-06T03:45:08.662Z,7.68
2023-03-06T03:45:40.436Z,8.68
2023-03-06T03:46:12.039Z,7.68
2023-03-06T03:46:44.069Z,8.40
2023-03-06T03:47:20.572Z,7.75
2023-03-06T03:47:52.666Z,8.20
2023-03-06T03:48:24.776Z,8.82
2023-03-06T03:48:56.570Z,6.93
2023-03-06T03:49:28.136Z,8.73
2023-03-06T03:49:59.691Z,8.27
2023-03-06T03:50:31.290Z,8.55
2023-03-06T03:51:11.140Z,9.13
2023-03-06T03:51:46.356Z,8.30
2023-03-06T03:52:19.355Z,9.00
2023-03-06T03:52:50.928Z,7.63
2023-03-06T03:53:22.499Z,7.38
2023-03-06T03:53:56.726Z,7.57
2023-03-06T03:54:29.928Z,8.73
2023-03-06T03:55:01.767Z,8.55
2023-03-06T03:55:33.645Z,8.10
2023-03-06T03:56:06.093Z,8.55
2023-03-06T03:56:41.776Z,8.95
2023-03-06T03:57:19.656Z,8.38
2023-03-06T03:57:55.216Z,8.15
2023-03-06T03:58:26.935Z,8.98
2023-03-06T03:58:58.639Z,9.18
2023-03-06T03:59:33.002Z,7.88
2023-03-06T04:00:24.870Z,7.88
2023-03-06T04:01:07.043Z,8.82
2023-03-06T04:01:39.765Z,7.75
2023-03-06T04:02:12.837Z,6.93
2023-03-06T04:02:53.105Z,8.05
2023-03-06T04:03:38.322Z,7.55
2023-03-06T04:04:11.486Z,9.00
2023-03-06T04:04:43.978Z,7.43
2023-03-06T04:05:16.265Z,8.85
2023-03-06T04:05:48.065Z,9.00
2023-03-06T04:06:21.102Z,8.27
2023-03-06T04:06:52.892Z,8.75
2023-03-06T04:07:24.782Z,9.10
2023-03-06T04:07:56.413Z,9.68
2023-03-06T04:08:28.318Z,9.48
2023-03-06T04:09:00.514Z,9.30
2023-03-06T04:09:32.316Z,9.20
2023-03-06T04:10:05.039Z,8.25
2023-03-06T04:10:38.845Z,9.73
2023-03-06T04:11:12.036Z,8.88
2023-03-06T04:11:44.368Z,9.55
2023-03-06T04:12:15.918Z,9.07
2023-03-06T04:12:47.845Z,8.77
2023-03-06T04:13:21.924Z,9.30
2023-03-06T04:13:54.230Z,9.52
2023-03-06T04:14:25.880Z,9.73
2023-03-06T04:14:58.202Z,9.15
2023-03-06T04:15:30.264Z,8.27
2023-03-06T04:16:01.885Z,9.35
2023-03-06T04:16:35.795Z,9.18
2023-03-06T04:17:07.370Z,9.73
2023-03-06T04:17:39.046Z,9.27
2023-03-06T04:18:13.782Z,9.50
2023-03-06T04:18:45.660Z,8.93
2023-03-06T04:19:18.073Z,9.00
2023-03-06T04:19:49.749Z,8.38
2023-03-06T04:20:22.187Z,9.10
2023-03-06T04:20:54.774Z,8.63
2023-03-06T04:21:26.393Z,9.20
2023-03-06T04:21:58.822Z,8.85
2023-03-06T04:22:30.677Z,10.13
2023-03-06T04:23:02.236Z,9.45
2023-03-06T04:23:34.022Z,10.35
2023-03-06T04:24:06.175Z,9.65
2023-03-06T04:24:37.755Z,9.40
2023-03-06T04:25:09.754Z,9.07
2023-03-06T04:25:41.670Z,8.32
2023-03-06T04:26:15.748Z,9.45
2023-03-06T04:26:47.609Z,9.20
2023-03-06T04:27:19.286Z,8.63
2023-03-06T04:27:50.802Z,9.90
2023-03-06T04:28:22.820Z,9.95
2023-03-06T04:28:56.081Z,9.45
2023-03-06T04:29:27.722Z,9.05
2023-03-06T04:29:59.466Z,9.95
2023-03-06T04:30:31.496Z,9.10
2023-03-06T04:31:03.602Z,9.57
2023-03-06T04:31:36.641Z,9.57
2023-03-06T04:32:08.997Z,9.00
2023-03-06T04:32:40.585Z,10.25
2023-03-06T04:33:12.523Z,9.60
2023-03-06T04:33:44.050Z,10.50
2023-03-06T04:34:15.666Z,10.10
2023-03-06T04:34:47.210Z,9.23
2023-03-06T04:35:18.863Z,10.50
2023-03-06T04:35:59.436Z,9.45
2023-03-06T04:36:34.979Z,9.60
2023-03-06T04:37:23.625Z,10.02
2023-03-06T04:37:56.057Z,10.48
2023-03-06T04:38:29.210Z,10.85
2023-03-06T04:39:01.287Z,11.30
2023-03-06T04:39:33.014Z,10.27
2023-03-06T04:40:05.309Z,10.80
2023-03-06T04:40:37.410Z,10.88
2023-03-06T04:41:09.154Z,10.27
2023-03-06T04:41:41.809Z,10.18
2023-03-06T04:42:13.676Z,11.98
2023-03-06T04:42:45.790Z,10.73
2023-03-06T04:43:17.334Z,10.63
2023-03-06T04:43:48.868Z,10.85
2023-03-06T04:44:20.380Z,10.70
2023-03-06T04:44:51.929Z,11.10
2023-03-06T04:45:24.066Z,11.48
2023-03-06T04:45:55.677Z,11.55
2023-03-06T04:46:27.245Z,11.35
2023-03-06T04:46:58.741Z,12.27
2023-03-06T04:47:30.257Z,11.68
2023-03-06T04:48:02.621Z,12.00
2023-03-06T04:48:36.323Z,10.32
2023-03-06T04:49:07.906Z,11.52
2023-03-06T04:49:39.530Z,11.25
2023-03-06T04:50:11.830Z,11.80
2023-03-06T04:50:43.937Z,11.35
2023-03-06T04:51:15.623Z,12.85
2023-03-06T04:51:47.251Z,11.10
2023-03-06T04:52:18.791Z,11.85
2023-03-06T04:52:50.620Z,12.20
2023-03-06T04:53:22.216Z,11.38
2023-03-06T04:53:53.810Z,11.15
2023-03-06T04:54:25.371Z,11.38
2023-03-06T04:54:57.067Z,12.00
2023-03-06T04:55:28.676Z,12.23
2023-03-06T04:56:00.251Z,12.48
2023-03-06T04:56:31.857Z,11.75
2023-03-06T04:57:03.575Z,12.45
2023-03-06T04:57:36.742Z,12.35
2023-03-06T04:58:08.435Z,12.38
2023-03-06T04:58:40.062Z,12.27
2023-03-06T04:59:11.674Z,12.20
2023-03-06T04:59:43.180Z,12.63
2023-03-06T05:00:18.616Z,12.43
2023-03-06T05:00:50.181Z,13.32
2023-03-06T05:01:21.767Z,11.75
2023-03-06T05:01:53.401Z,12.38
2023-03-06T05:02:24.993Z,12.15
2023-03-06T05:02:58.100Z,13.63
2023-03-06T05:03:29.710Z,11.52
2023-03-06T05:04:01.241Z,13.52
2023-03-06T05:04:32.756Z,12.82
2023-03-06T05:05:05.479Z,12.45
2023-03-06T05:05:37.010Z,12.50
2023-03-06T05:06:08.526Z,13.35
2023-03-06T05:06:40.176Z,12.95
2023-03-06T05:07:11.737Z,13.13
2023-03-06T05:07:43.834Z,12.52
2023-03-06T05:08:16.249Z,13.40
2023-03-06T05:08:47.869Z,12.43
2023-03-06T05:09:19.428Z,12.05
2023-03-06T05:09:50.949Z,12.65
2023-03-06T05:10:23.039Z,12.75
2023-03-06T05:10:57.557Z,12.57
2023-03-06T05:11:29.173Z,12.30
2023-03-06T05:12:00.742Z,12.57
2023-03-06T05:12:35.743Z,13.70
2023-03-06T05:13:07.563Z,14.10
2023-03-06T05:13:39.120Z,12.23
2023-03-06T05:14:10.748Z,11.98
2023-03-06T05:14:42.315Z,13.40
2023-03-06T05:15:14.558Z,11.73
2023-03-06T05:15:46.128Z,12.45
2023-03-06T05:16:17.895Z,11.30
2023-03-06T05:16:49.537Z,13.02
2023-03-06T05:17:21.094Z,13.18
2023-03-06T05:17:52.681Z,13.73
2023-03-06T05:18:24.239Z,12.98
2023-03-06T05:18:55.769Z,11.57
2023-03-06T05:19:27.405Z,11.95
2023-03-06T05:19:59.001Z,12.75
2023-03-06T05:20:30.529Z,12.30
2023-03-06T05:21:02.383Z,13.05
2023-03-06T05:21:34.042Z,13.00
2023-03-06T05:22:05.758Z,11.52
2023-03-06T05:22:37.770Z,12.73
2023-03-06T05:23:09.335Z,11.40
2023-03-06T05:23:41.002Z,12.50
2023-03-06T05:24:12.517Z,12.60
2023-03-06T05:24:44.109Z,12.38
2023-03-06T05:25:15.899Z,11.30
2023-03-06T05:25:47.459Z,12.75
2023-03-06T05:26:20.204Z,11.93
2023-03-06T05:26:51.784Z,11.82
2023-03-06T05:27:23.356Z,11.80
2023-03-06T05:27:54.908Z,11.63
2023-03-06T05:28:27.050Z,12.70
2023-03-06T05:28:58.542Z,12.45
2023-03-06T05:29:30.084Z,11.75
2023-03-06T05:30:01.825Z,12.00
2023-03-06T05:30:33.475Z,11.77
2023-03-06T05:31:05.550Z,12.88
2023-03-06T05:31:37.376Z,12.13
2023-03-06T05:32:08.991Z,12.40
2023-03-06T05:32:40.714Z,11.95
2023-03-06T05:33:12.385Z,12.20
2023-03-06T05:33:43.907Z,10.57
2023-03-06T05:34:16.647Z,11.35
2023-03-06T05:34:49.080Z,12.18
2023-03-06T05:35:22.851Z,12.20
2023-03-06T05:35:54.446Z,11.25
2023-03-06T05:36:26.119Z,11.35
2023-03-06T05:36:57.739Z,11.82
2023-03-06T05:37:29.268Z,10.63
2023-03-06T05:38:00.835Z,11.50
2023-03-06T05:38:32.692Z,10.82
2023-03-06T05:39:04.209Z,11.50
2023-03-06T05:39:35.786Z,12.35
2023-03-06T05:40:09.505Z,11.50
2023-03-06T05:40:42.006Z,10.50
2023-03-06T05:41:14.245Z,10.88
2023-03-06T05:41:45.832Z,11.45
2023-03-06T05:42:18.419Z,11.52
2023-03-06T05:42:50.004Z,10.20
2023-03-06T05:43:21.584Z,10.77
2023-03-06T05:43:53.289Z,12.02
2023-03-06T05:44:24.992Z,11.60
2023-03-06T05:44:56.533Z,11.05
2023-03-06T05:45:28.064Z,10.68
2023-03-06T05:46:04.941Z,11.90
2023-03-06T05:46:37.753Z,11.27
2023-03-06T05:47:09.468Z,12.00
2023-03-06T05:47:41.176Z,11.48
2023-03-06T05:48:13.698Z,10.73
2023-03-06T05:48:46.815Z,11.00
2023-03-06T05:49:18.606Z,12.13
2023-03-06T05:49:50.131Z,11.07
2023-03-06T05:50:21.693Z,11.57
2023-03-06T05:50:57.811Z,11.10
2023-03-06T05:51:29.737Z,11.98
2023-03-06T05:52:04.059Z,11.20
2023-03-06T05:52:35.614Z,11.60
2023-03-06T05:53:07.139Z,11.50
2023-03-06T05:53:38.689Z,11.43
2023-03-06T05:54:10.322Z,12.55
2023-03-06T05:54:41.848Z,13.60
2023-03-06T05:55:13.460Z,12.40
2023-03-06T05:55:44.961Z,12.48
2023-03-06T05:56:16.523Z,12.15
2023-03-06T05:56:48.093Z,11.55
2023-03-06T05:57:21.114Z,12.13
2023-03-06T05:57:53.523Z,11.32
2023-03-06T05:58:25.418Z,12.15
2023-03-06T05:58:56.932Z,12.18
2023-03-06T05:59:29.069Z,11.88
2023-03-06T06:00:00.739Z,12.82
2023-03-06T06:00:32.314Z,11.77
2023-03-06T06:01:11.978Z,13.23
2023-03-06T06:01:43.622Z,12.07
2023-03-06T06:02:15.631Z,12.63
2023-03-06T06:02:47.396Z,12.80
2023-03-06T06:03:19.476Z,12.98
2023-03-06T06:03:51.437Z,12.15
2023-03-06T06:04:24.549Z,12.38
2023-03-06T06:04:56.060Z,11.32
2023-03-06T06:05:27.626Z,12.68
2023-03-06T06:05:59.145Z,12.88
2023-03-06T06:06:30.691Z,12.88
2023-03-06T06:07:02.477Z,11.93
2023-03-06T06:07:34.420Z,12.48
2023-03-06T06:08:06.003Z,12.45
2023-03-06T06:08:37.972Z,12.23
2023-03-06T06:09:11.231Z,11.45
2023-03-06T06:09:45.653Z,12.43
2023-03-06T06:10:17.757Z,12.00
2023-03-06T06:10:51.008Z,12.35
2023-03-06T06:11:24.381Z,11.32
2023-03-06T06:11:58.834Z,11.45
2023-03-06T06:12:30.591Z,13.13
2023-03-06T06:13:02.102Z,11.73
2023-03-06T06:13:33.803Z,10.50
2023-03-06T06:14:05.446Z,11.57
2023-03-06T06:14:37.100Z,13.27
2023-03-06T06:15:09.147Z,12.05
2023-03-06T06:15:40.709Z,11.43
2023-03-06T06:16:16.384Z,12.70
2023-03-06T06:16:48.267Z,12.60
2023-03-06T06:17:19.885Z,11.18
2023-03-06T06:17:51.467Z,11.88
2023-03-06T06:18:23.057Z,11.45
2023-03-06T06:18:54.630Z,12.32
2023-03-06T06:19:28.754Z,12.68
2023-03-06T06:20:00.451Z,12.07
2023-03-06T06:20:32.271Z,10.55
2023-03-06T06:21:06.866Z,11.30
2023-03-06T06:21:38.367Z,11.32
2023-03-06T06:22:10.070Z,12.15
2023-03-06T06:22:41.657Z,11.73
2023-03-06T06:23:13.231Z,11.52
2023-03-06T06:23:44.774Z,10.60
2023-03-06T06:24:18.226Z,12.10
2023-03-06T06:24:49.783Z,12.82
2023-03-06T06:25:21.320Z,11.38
2023-03-06T06:25:52.809Z,11.48
2023-03-06T06:26:24.450Z,12.10
2023-03-06T06:26:57.244Z,11.48
2023-03-06T06:27:28.854Z,12.18
2023-03-06T06:28:00.370Z,12.27
2023-03-06T06:28:32.769Z,12.75
2023-03-06T06:29:05.211Z,12.18
2023-03-06T06:29:36.807Z,12.50
2023-03-06T06:30:10.775Z,11.95
2023-03-06T06:30:43.414Z,12.00
2023-03-06T06:31:15.185Z,12.00
2023-03-06T06:31:46.793Z,11.18
2023-03-06T06:32:18.393Z,12.18
2023-03-06T06:32:50.326Z,12.25
2023-03-06T06:33:22.139Z,12.02
2023-03-06T06:33:53.687Z,12.50
2023-03-06T06:34:26.105Z,12.25
2023-03-06T06:34:58.085Z,13.27
2023-03-06T06:35:29.731Z,11.85
2023-03-06T06:36:01.373Z,11.82
2023-03-06T06:36:33.297Z,12.43
2023-03-06T06:37:05.360Z,13.27
2023-03-06T06:37:37.019Z,12.25
2023-03-06T06:38:08.571Z,11.23
2023-03-06T06:38:40.118Z,12.43
2023-03-06T06:39:15.266Z,12.27
2023-03-06T06:39:46.858Z,12.43
2023-03-06T06:40:18.784Z,11.70
2023-03-06T06:41:26.757Z,11.88
2023-03-06T06:42:39.189Z,9.32
2023-03-06T06:43:11.312Z,11.38
2023-03-06T06:43:42.905Z,10.82
2023-03-06T06:44:16.153Z,11.50
2023-03-06T06:44:47.912Z,11.15
2023-03-06T06:45:19.613Z,12.95
2023-03-06T06:45:51.204Z,11.75
2023-03-06T06:46:59.262Z,11.38
2023-03-06T06:47:24.461Z,11.60
2023-03-06T06:47:56.635Z,11.93
2023-03-06T06:48:28.241Z,12.50
2023-03-06T06:49:00.908Z,13.55
2023-03-06T06:49:32.894Z,12.25
2023-03-06T06:50:04.831Z,14.05
2023-03-06T06:50:36.416Z,11.70
2023-03-06T06:51:07.949Z,13.27
2023-03-06T06:51:40.119Z,13.27
2023-03-06T06:52:11.683Z,11.48
2023-03-06T06:52:43.296Z,11.95
2023-03-06T06:53:14.826Z,11.77
2023-03-06T06:53:47.194Z,13.27
2023-03-06T06:54:20.127Z,13.45
2023-03-06T06:54:52.677Z,13.13
2023-03-06T06:55:24.186Z,13.85
2023-03-06T06:55:58.087Z,13.25
2023-03-06T06:56:29.698Z,13.30
2023-03-06T06:57:01.266Z,13.75
2023-03-06T06:57:32.894Z,13.40
2023-03-06T06:58:04.516Z,13.23
2023-03-06T06:58:36.064Z,13.82
2023-03-06T06:59:16.448Z,14.25
2023-03-06T06:59:49.700Z,12.13
2023-03-06T07:00:22.757Z,12.43
2023-03-06T07:00:54.323Z,13.48
2023-03-06T07:01:26.166Z,13.05
2023-03-06T07:01:57.854Z,14.00
2023-03-06T07:02:29.495Z,12.77
2023-03-06T07:03:01.067Z,13.90
2023-03-06T07:03:32.656Z,12.70
2023-03-06T07:04:04.327Z,13.55
2023-03-06T07:04:35.890Z,13.52
2023-03-06T07:05:07.894Z,13.00
2023-03-06T07:05:39.502Z,13.10
2023-03-06T07:06:11.236Z,12.77
2023-03-06T07:06:42.904Z,13.05
2023-03-06T07:07:14.609Z,13.23
2023-03-06T07:07:46.191Z,12.35
2023-03-06T07:08:17.790Z,14.38
2023-03-06T07:08:49.346Z,13.32
2023-03-06T07:09:22.269Z,12.85
2023-03-06T07:09:54.688Z,13.25
2023-03-06T07:10:26.263Z,12.60
2023-03-06T07:10:58.284Z,13.55
2023-03-06T07:11:29.815Z,13.85
2023-03-06T07:12:01.383Z,14.43
2023-03-06T07:12:34.955Z,12.80